createdAt,value
2023-04-16T00:00:56.292Z,494.00
2023-04-16T00:01:56.400Z,496.00
2023-04-16T00:02:56.555Z,494.00
2023-04-16T00:03:56.642Z,493.00
2023-04-16T00:04:56.463Z,492.00
2023-04-16T00:05:56.521Z,492.00
2023-04-16T00:06:56.468Z,494.00
2023-04-16T00:07:56.480Z,493.00
2023-04-16T00:08:56.514Z,491.00
2023-04-16T00:09:56.532Z,489.00
2023-04-16T00:10:56.580Z,488.00
2023-04-16T00:11:58.414Z,488.00
2023-04-16T00:12:56.681Z,489.00
2023-04-16T00:13:56.670Z,490.00
2023-04-16T00:14:56.883Z,489.00
2023-04-16T00:15:56.774Z,492.00
2023-04-16T00:16:56.838Z,494.00
2023-04-16T00:17:56.929Z,497.00
2023-04-16T00:18:56.883Z,500.00
2023-04-16T00:19:56.935Z,498.00
2023-04-16T00:20:57.058Z,497.00
2023-04-16T00:21:57.294Z,497.00
2023-04-16T00:22:57.087Z,497.00
2023-04-16T00:23:57.102Z,498.00
2023-04-16T00:24:57.113Z,497.00
2023-04-16T00:25:57.185Z,496.00
2023-04-16T00:26:57.239Z,496.00
2023-04-16T00:27:57.258Z,495.00
2023-04-16T00:28:57.273Z,492.00
2023-04-16T00:29:57.295Z,493.00
2023-04-16T00:30:57.380Z,495.00
2023-04-16T00:31:57.412Z,495.00
2023-04-16T00:32:57.443Z,495.00
2023-04-16T00:33:57.520Z,494.00
2023-04-16T00:34:57.549Z,493.00
2023-04-16T00:35:57.569Z,490.00
2023-04-16T00:36:57.594Z,490.00
2023-04-16T00:37:57.607Z,491.00
2023-04-16T00:38:57.619Z,489.00
2023-04-16T00:39:57.676Z,489.00
2023-04-16T00:40:57.679Z,492.00
2023-04-16T00:41:57.844Z,492.00
2023-04-16T00:42:57.742Z,492.00
2023-04-16T00:43:57.776Z,491.00
2023-04-16T00:44:57.764Z,488.00
2023-04-16T00:45:57.845Z,489.00
2023-04-16T00:46:57.838Z,490.00
2023-04-16T00:47:59.938Z,488.00
2023-04-16T00:48:58.108Z,488.00
2023-04-16T00:49:58.094Z,488.00
2023-04-16T00:50:58.161Z,488.00
2023-04-16T00:51:58.298Z,488.00
2023-04-16T00:52:58.203Z,485.00
2023-04-16T00:53:58.220Z,485.00
2023-04-16T00:54:58.242Z,484.00
2023-04-16T00:55:58.277Z,483.00
2023-04-16T00:56:58.289Z,483.00
2023-04-16T00:57:58.341Z,485.00
2023-04-16T00:58:58.378Z,485.00
2023-04-16T00:59:58.379Z,484.00
2023-04-16T01:00:58.456Z,484.00
2023-04-16T01:01:58.640Z,484.00
2023-04-16T01:02:58.651Z,482.00
2023-04-16T01:03:58.727Z,485.00
2023-04-16T01:04:58.673Z,486.00
2023-04-16T01:05:58.761Z,486.00
2023-04-16T01:06:58.816Z,487.00
2023-04-16T01:07:58.848Z,487.00
2023-04-16T01:08:58.915Z,489.00
2023-04-16T01:09:58.991Z,488.00
2023-04-16T01:10:59.018Z,492.00
2023-04-16T01:11:59.085Z,490.00
2023-04-16T01:12:59.154Z,490.00
2023-04-16T01:13:59.230Z,490.00
2023-04-16T01:14:59.240Z,489.00
2023-04-16T01:15:59.318Z,489.00
2023-04-16T01:16:59.330Z,489.00
2023-04-16T01:17:59.401Z,490.00
2023-04-16T01:18:59.466Z,490.00
2023-04-16T01:19:59.483Z,488.00
2023-04-16T01:20:59.519Z,490.00
2023-04-16T01:21:59.587Z,491.00
2023-04-16T01:22:59.586Z,494.00
2023-04-16T01:23:59.647Z,493.00
2023-04-16T01:24:59.668Z,493.00
2023-04-16T01:25:59.802Z,494.00
2023-04-16T01:26:59.811Z,496.00
2023-04-16T01:27:59.770Z,496.00
2023-04-16T01:28:59.873Z,495.00
2023-04-16T01:29:59.874Z,494.00
2023-04-16T01:30:59.917Z,492.00
2023-04-16T01:31:59.950Z,490.00
2023-04-16T01:33:00.060Z,490.00
2023-04-16T01:34:00.001Z,489.00
2023-04-16T01:35:00.025Z,487.00
2023-04-16T01:36:00.081Z,486.00
2023-04-16T01:37:00.159Z,486.00
2023-04-16T01:38:00.164Z,484.00
2023-04-16T01:39:00.224Z,486.00
2023-04-16T01:40:00.225Z,486.00
2023-04-16T01:41:00.296Z,486.00
2023-04-16T01:42:00.274Z,487.00
2023-04-16T01:43:00.311Z,485.00
2023-04-16T01:44:00.313Z,486.00
2023-04-16T01:45:00.330Z,485.00
2023-04-16T01:46:00.368Z,487.00
2023-04-16T01:47:00.466Z,487.00
2023-04-16T01:48:00.460Z,488.00
2023-04-16T01:49:00.469Z,487.00
2023-04-16T01:50:00.448Z,486.00
2023-04-16T01:51:00.479Z,484.00
2023-04-16T01:52:00.491Z,484.00
2023-04-16T01:53:00.500Z,487.00
2023-04-16T01:54:00.567Z,490.00
2023-04-16T01:55:00.556Z,489.00
2023-04-16T01:56:00.576Z,487.00
2023-04-16T01:57:00.582Z,486.00
2023-04-16T01:58:00.558Z,487.00
2023-04-16T01:59:00.576Z,485.00
2023-04-16T02:00:00.596Z,484.00
2023-04-16T02:01:00.749Z,482.00
2023-04-16T02:02:00.740Z,482.00
2023-04-16T02:03:00.868Z,483.00
2023-04-16T02:04:00.701Z,483.00
2023-04-16T02:05:00.640Z,483.00
2023-04-16T02:06:00.653Z,481.00
2023-04-16T02:07:00.701Z,481.00
2023-04-16T02:08:00.736Z,480.00
2023-04-16T02:09:00.777Z,478.00
2023-04-16T02:10:00.799Z,477.00
2023-04-16T02:11:00.790Z,479.00
2023-04-16T02:12:00.824Z,481.00
2023-04-16T02:13:00.898Z,481.00
2023-04-16T02:14:00.875Z,482.00
2023-04-16T02:15:00.906Z,482.00
2023-04-16T02:16:00.932Z,484.00
2023-04-16T02:17:00.946Z,482.00
2023-04-16T02:18:01.075Z,479.00
2023-04-16T02:19:01.000Z,478.00
2023-04-16T02:20:00.969Z,479.00
2023-04-16T02:21:00.989Z,478.00
2023-04-16T02:22:00.998Z,478.00
2023-04-16T02:23:01.010Z,481.00
2023-04-16T02:24:00.979Z,481.00
2023-04-16T02:25:01.001Z,478.00
2023-04-16T02:26:00.983Z,477.00
2023-04-16T02:27:00.978Z,479.00
2023-04-16T02:28:01.016Z,478.00
2023-04-16T02:29:01.017Z,479.00
2023-04-16T02:30:01.038Z,478.00
2023-04-16T02:31:01.009Z,481.00
2023-04-16T02:32:01.101Z,479.00
2023-04-16T02:33:01.111Z,479.00
2023-04-16T02:34:00.982Z,480.00
2023-04-16T02:35:00.995Z,480.00
2023-04-16T02:36:01.004Z,481.00
2023-04-16T02:37:00.984Z,482.00
2023-04-16T02:38:01.032Z,480.00
2023-04-16T02:39:01.014Z,481.00
2023-04-16T02:40:01.008Z,479.00
2023-04-16T02:41:01.027Z,479.00
2023-04-16T02:42:01.081Z,480.00
2023-04-16T02:43:01.072Z,480.00
2023-04-16T02:44:01.055Z,478.00
2023-04-16T02:45:01.095Z,477.00
2023-04-16T02:46:01.157Z,478.00
2023-04-16T02:47:01.195Z,481.00
2023-04-16T02:48:01.257Z,480.00
2023-04-16T02:49:01.182Z,479.00
2023-04-16T02:50:01.190Z,479.00
2023-04-16T02:51:01.191Z,480.00
2023-04-16T02:52:01.229Z,477.00
2023-04-16T02:53:01.280Z,479.00
2023-04-16T02:54:01.320Z,478.00
2023-04-16T02:55:01.337Z,479.00
2023-04-16T02:56:01.317Z,478.00
2023-04-16T02:57:01.379Z,479.00
2023-04-16T02:58:01.509Z,481.00
2023-04-16T02:59:01.433Z,482.00
2023-04-16T03:00:01.491Z,483.00
2023-04-16T03:01:01.505Z,481.00
2023-04-16T03:02:01.567Z,478.00
2023-04-16T03:03:01.656Z,478.00
2023-04-16T03:04:01.731Z,478.00
2023-04-16T03:05:01.580Z,476.00
2023-04-16T03:06:01.601Z,477.00
2023-04-16T03:07:01.637Z,478.00
2023-04-16T03:08:01.690Z,476.00
2023-04-16T03:09:01.664Z,476.00
2023-04-16T03:10:01.664Z,476.00
2023-04-16T03:11:01.678Z,476.00
2023-04-16T03:12:01.736Z,477.00
2023-04-16T03:13:01.769Z,476.00
2023-04-16T03:14:01.775Z,476.00
2023-04-16T03:15:01.776Z,476.00
2023-04-16T03:16:01.977Z,475.00
2023-04-16T03:17:01.893Z,472.00
2023-04-16T03:18:01.925Z,473.00
2023-04-16T03:19:01.931Z,473.00
2023-04-16T03:20:01.956Z,474.00
2023-04-16T03:21:02.031Z,473.00
2023-04-16T03:22:02.056Z,473.00
2023-04-16T03:23:02.019Z,475.00
2023-04-16T03:24:02.042Z,473.00
2023-04-16T03:25:02.030Z,472.00
2023-04-16T03:26:02.047Z,471.00
2023-04-16T03:27:02.042Z,472.00
2023-04-16T03:28:02.037Z,474.00
2023-04-16T03:29:02.046Z,472.00
2023-04-16T03:30:02.096Z,474.00
2023-04-16T03:31:02.082Z,474.00
2023-04-16T03:32:02.072Z,478.00
2023-04-16T03:33:02.148Z,480.00
2023-04-16T03:34:02.112Z,479.00
2023-04-16T03:35:02.137Z,478.00
2023-04-16T03:36:02.107Z,479.00
2023-04-16T03:37:02.129Z,477.00
2023-04-16T03:38:02.115Z,478.00
2023-04-16T03:39:02.167Z,477.00
2023-04-16T03:40:02.136Z,475.00
2023-04-16T03:41:02.142Z,474.00
2023-04-16T03:42:02.230Z,476.00
2023-04-16T03:43:02.187Z,477.00
2023-04-16T03:44:02.353Z,478.00
2023-04-16T03:45:02.186Z,477.00
2023-04-16T03:46:02.220Z,477.00
2023-04-16T03:47:02.256Z,477.00
2023-04-16T03:48:02.245Z,478.00
2023-04-16T03:49:02.238Z,480.00
2023-04-16T03:50:02.272Z,480.00
2023-04-16T03:51:02.230Z,480.00
2023-04-16T03:52:02.250Z,478.00
2023-04-16T03:53:02.303Z,476.00
2023-04-16T03:54:02.259Z,478.00
2023-04-16T03:55:02.274Z,478.00
2023-04-16T03:56:02.256Z,479.00
2023-04-16T03:57:02.324Z,479.00
2023-04-16T03:58:02.268Z,479.00
2023-04-16T03:59:02.329Z,479.00
2023-04-16T04:00:02.289Z,478.00
2023-04-16T04:01:02.361Z,476.00
2023-04-16T04:02:02.444Z,476.00
2023-04-16T04:03:02.690Z,475.00
2023-04-16T04:04:02.572Z,475.00
2023-04-16T04:05:02.626Z,475.00
2023-04-16T04:06:02.560Z,477.00
2023-04-16T04:07:02.602Z,477.00
2023-04-16T04:08:02.636Z,479.00
2023-04-16T04:09:02.619Z,481.00
2023-04-16T04:10:02.656Z,483.00
2023-04-16T04:11:02.638Z,481.00
2023-04-16T04:12:02.679Z,480.00
2023-04-16T04:13:02.687Z,480.00
2023-04-16T04:14:02.656Z,483.00
2023-04-16T04:15:02.686Z,481.00
2023-04-16T04:16:02.684Z,480.00
2023-04-16T04:17:02.686Z,480.00
2023-04-16T04:18:02.772Z,478.00
2023-04-16T04:19:02.700Z,477.00
2023-04-16T04:20:02.738Z,477.00
2023-04-16T04:21:02.733Z,477.00
2023-04-16T04:22:02.751Z,476.00
2023-04-16T04:23:02.779Z,475.00
2023-04-16T04:24:02.808Z,475.00
2023-04-16T04:25:02.802Z,475.00
2023-04-16T04:26:02.776Z,474.00
2023-04-16T04:27:02.791Z,475.00
2023-04-16T04:28:02.836Z,476.00
2023-04-16T04:29:02.862Z,475.00
2023-04-16T04:30:02.850Z,475.00
2023-04-16T04:31:02.864Z,476.00
2023-04-16T04:32:02.973Z,476.00
2023-04-16T04:33:02.896Z,477.00
2023-04-16T04:34:02.872Z,478.00
2023-04-16T04:35:02.893Z,480.00
2023-04-16T04:36:02.934Z,479.00
2023-04-16T04:37:02.873Z,480.00
2023-04-16T04:38:03.004Z,480.00
2023-04-16T04:39:02.925Z,478.00
2023-04-16T04:40:02.941Z,475.00
2023-04-16T04:41:03.031Z,478.00
2023-04-16T04:42:02.995Z,480.00
2023-04-16T04:43:03.010Z,482.00
2023-04-16T04:44:03.017Z,481.00
2023-04-16T04:45:02.982Z,480.00
2023-04-16T04:46:03.028Z,481.00
2023-04-16T04:47:03.001Z,478.00
2023-04-16T04:48:03.052Z,478.00
2023-04-16T04:49:03.363Z,477.00
2023-04-16T04:50:03.006Z,474.00
2023-04-16T04:51:04.715Z,474.00
2023-04-16T04:52:03.003Z,474.00
2023-04-16T04:53:03.010Z,474.00
2023-04-16T04:54:03.016Z,474.00
2023-04-16T04:55:03.042Z,471.00
2023-04-16T04:56:12.490Z,472.00
2023-04-16T04:57:04.013Z,471.00
2023-04-16T04:58:03.010Z,474.00
2023-04-16T04:59:03.068Z,474.00
2023-04-16T05:00:02.993Z,479.00
2023-04-16T05:01:02.984Z,477.00
2023-04-16T05:02:02.996Z,476.00
2023-04-16T05:03:03.062Z,476.00
2023-04-16T05:04:03.010Z,476.00
2023-04-16T05:05:03.105Z,478.00
2023-04-16T05:06:02.999Z,479.00
2023-04-16T05:07:02.957Z,480.00
2023-04-16T05:08:02.938Z,478.00
2023-04-16T05:09:02.956Z,476.00
2023-04-16T05:10:02.975Z,477.00
2023-04-16T05:11:02.929Z,481.00
2023-04-16T05:12:02.953Z,483.00
2023-04-16T05:13:02.936Z,483.00
2023-04-16T05:14:02.934Z,483.00
2023-04-16T05:15:02.938Z,483.00
2023-04-16T05:16:03.012Z,482.00
2023-04-16T05:17:03.078Z,481.00
2023-04-16T05:18:03.146Z,481.00
2023-04-16T05:19:03.034Z,480.00
2023-04-16T05:20:03.126Z,480.00
2023-04-16T05:21:03.054Z,481.00
2023-04-16T05:22:03.047Z,481.00
2023-04-16T05:23:03.076Z,482.00
2023-04-16T05:24:03.079Z,480.00
2023-04-16T05:25:03.076Z,483.00
2023-04-16T05:26:03.298Z,481.00
2023-04-16T05:27:03.082Z,483.00
2023-04-16T05:28:03.111Z,483.00
2023-04-16T05:29:03.081Z,484.00
2023-04-16T05:30:03.117Z,481.00
2023-04-16T05:31:03.172Z,484.00
2023-04-16T05:32:03.207Z,484.00
2023-04-16T05:33:03.105Z,486.00
2023-04-16T05:34:03.115Z,487.00
2023-04-16T05:35:03.120Z,487.00
2023-04-16T05:36:03.166Z,486.00
2023-04-16T05:37:03.140Z,486.00
2023-04-16T05:38:03.148Z,486.00
2023-04-16T05:39:03.258Z,486.00
2023-04-16T05:40:03.172Z,487.00
2023-04-16T05:41:03.154Z,488.00
2023-04-16T05:42:03.165Z,488.00
2023-04-16T05:43:03.183Z,489.00
2023-04-16T05:44:03.192Z,487.00
2023-04-16T05:45:03.154Z,486.00
2023-04-16T05:46:03.211Z,487.00
2023-04-16T05:47:03.161Z,488.00
2023-04-16T05:48:03.193Z,487.00
2023-04-16T05:49:03.178Z,487.00
2023-04-16T05:50:03.144Z,487.00
2023-04-16T05:51:03.174Z,489.00
2023-04-16T05:52:03.183Z,489.00
2023-04-16T05:53:03.150Z,488.00
2023-04-16T05:54:03.292Z,488.00
2023-04-16T05:55:03.182Z,489.00
2023-04-16T05:56:03.198Z,489.00
2023-04-16T05:57:03.202Z,489.00
2023-04-16T05:58:03.182Z,490.00
2023-04-16T05:59:03.225Z,487.00
2023-04-16T06:00:03.224Z,486.00
2023-04-16T06:01:03.211Z,485.00
2023-04-16T06:02:03.293Z,487.00
2023-04-16T06:03:03.432Z,487.00
2023-04-16T06:04:03.675Z,483.00
2023-04-16T06:05:03.269Z,485.00
2023-04-16T06:06:03.301Z,487.00
2023-04-16T06:07:03.209Z,488.00
2023-04-16T06:08:03.238Z,488.00
2023-04-16T06:09:03.273Z,489.00
2023-04-16T06:10:03.243Z,489.00
2023-04-16T06:11:03.399Z,489.00
2023-04-16T06:12:03.321Z,489.00
2023-04-16T06:13:03.296Z,489.00
2023-04-16T06:14:03.331Z,488.00
2023-04-16T06:15:03.367Z,484.00
2023-04-16T06:16:03.369Z,482.00
2023-04-16T06:17:03.313Z,481.00
2023-04-16T06:18:03.439Z,480.00
2023-04-16T06:19:03.338Z,478.00
2023-04-16T06:20:03.359Z,479.00
2023-04-16T06:21:03.361Z,477.00
2023-04-16T06:22:03.394Z,475.00
2023-04-16T06:23:03.400Z,478.00
2023-04-16T06:24:03.425Z,477.00
2023-04-16T06:25:03.444Z,479.00
2023-04-16T06:26:03.428Z,480.00
2023-04-16T06:27:03.589Z,480.00
2023-04-16T06:28:03.444Z,480.00
2023-04-16T06:29:03.456Z,481.00
2023-04-16T06:30:03.478Z,482.00
2023-04-16T06:31:03.475Z,480.00
2023-04-16T06:32:03.519Z,482.00
2023-04-16T06:33:03.518Z,480.00
2023-04-16T06:34:03.500Z,479.00
2023-04-16T06:35:03.536Z,480.00
2023-04-16T06:36:03.535Z,479.00
2023-04-16T06:37:03.547Z,479.00
2023-04-16T06:38:03.701Z,476.00
2023-04-16T06:39:03.581Z,478.00
2023-04-16T06:40:03.549Z,478.00
2023-04-16T06:41:03.536Z,477.00
2023-04-16T06:42:03.562Z,478.00
2023-04-16T06:43:03.532Z,478.00
2023-04-16T06:44:03.535Z,480.00
2023-04-16T06:45:03.567Z,479.00
2023-04-16T06:46:03.540Z,478.00
2023-04-16T06:47:03.658Z,477.00
2023-04-16T06:48:03.602Z,476.00
2023-04-16T06:49:03.536Z,476.00
2023-04-16T06:50:03.550Z,475.00
2023-04-16T06:51:03.573Z,475.00
2023-04-16T06:52:05.833Z,474.00
2023-04-16T06:53:03.646Z,475.00
2023-04-16T06:54:03.664Z,473.00
2023-04-16T06:55:03.706Z,471.00
2023-04-16T06:56:03.704Z,471.00
2023-04-16T06:57:03.742Z,471.00
2023-04-16T06:58:03.742Z,471.00
2023-04-16T06:59:03.770Z,471.00
2023-04-16T07:00:03.925Z,473.00
2023-04-16T07:01:03.853Z,472.00
2023-04-16T07:02:03.767Z,474.00
2023-04-16T07:03:04.102Z,470.00
2023-04-16T07:04:04.006Z,471.00
2023-04-16T07:05:03.804Z,473.00
2023-04-16T07:06:03.802Z,476.00
2023-04-16T07:07:03.843Z,475.00
2023-04-16T07:08:03.815Z,474.00
2023-04-16T07:09:03.919Z,472.00
2023-04-16T07:10:03.807Z,469.00
2023-04-16T07:11:03.834Z,467.00
2023-04-16T07:12:03.810Z,468.00
2023-04-16T07:13:03.843Z,469.00
2023-04-16T07:14:03.948Z,465.00
2023-04-16T07:15:03.800Z,467.00
2023-04-16T07:16:03.825Z,468.00
2023-04-16T07:17:03.834Z,468.00
2023-04-16T07:18:03.895Z,469.00
2023-04-16T07:19:03.893Z,469.00
2023-04-16T07:20:03.856Z,468.00
2023-04-16T07:21:03.862Z,472.00
2023-04-16T07:22:03.912Z,473.00
2023-04-16T07:23:03.892Z,472.00
2023-04-16T07:24:03.923Z,472.00
2023-04-16T07:25:03.891Z,474.00
2023-04-16T07:26:03.897Z,474.00
2023-04-16T07:27:03.941Z,475.00
2023-04-16T07:28:03.899Z,476.00
2023-04-16T07:29:03.904Z,475.00
2023-04-16T07:30:03.974Z,473.00
2023-04-16T07:31:03.940Z,474.00
2023-04-16T07:32:04.039Z,473.00
2023-04-16T07:33:04.025Z,469.00
2023-04-16T07:34:03.971Z,467.00
2023-04-16T07:35:03.976Z,467.00
2023-04-16T07:36:04.000Z,469.00
2023-04-16T07:37:04.054Z,470.00
2023-04-16T07:38:04.053Z,470.00
2023-04-16T07:39:04.044Z,469.00
2023-04-16T07:40:04.058Z,469.00
2023-04-16T07:41:04.135Z,467.00
2023-04-16T07:42:04.053Z,467.00
2023-04-16T07:43:04.077Z,466.00
2023-04-16T07:44:04.069Z,465.00
2023-04-16T07:45:04.090Z,468.00
2023-04-16T07:46:04.132Z,468.00
2023-04-16T07:47:05.564Z,466.00
2023-04-16T07:48:04.164Z,469.00
2023-04-16T07:49:04.064Z,472.00
2023-04-16T07:50:04.096Z,471.00
2023-04-16T07:51:04.078Z,471.00
2023-04-16T07:52:04.086Z,474.00
2023-04-16T07:53:04.095Z,476.00
2023-04-16T07:54:04.071Z,476.00
2023-04-16T07:55:04.097Z,475.00
2023-04-16T07:56:04.073Z,476.00
2023-04-16T07:57:04.084Z,475.00
2023-04-16T07:58:04.072Z,477.00
2023-04-16T07:59:18.501Z,477.00
2023-04-16T08:00:05.079Z,475.00
2023-04-16T08:01:04.070Z,473.00
2023-04-16T08:02:04.128Z,472.00
2023-04-16T08:03:04.241Z,471.00
2023-04-16T08:04:04.113Z,470.00
2023-04-16T08:05:04.045Z,472.00
2023-04-16T08:06:04.049Z,469.00
2023-04-16T08:07:04.017Z,468.00
2023-04-16T08:08:04.028Z,467.00
2023-04-16T08:09:04.031Z,466.00
2023-04-16T08:10:04.023Z,469.00
2023-04-16T08:11:03.989Z,470.00
2023-04-16T08:12:04.000Z,466.00
2023-04-16T08:13:03.971Z,466.00
2023-04-16T08:14:03.996Z,466.00
2023-04-16T08:15:03.962Z,468.00
2023-04-16T08:16:04.002Z,471.00
2023-04-16T08:17:03.988Z,472.00
2023-04-16T08:18:03.983Z,471.00
2023-04-16T08:19:03.936Z,471.00
2023-04-16T08:20:03.949Z,470.00
2023-04-16T08:21:03.931Z,470.00
2023-04-16T08:22:03.919Z,471.00
2023-04-16T08:23:03.906Z,470.00
2023-04-16T08:24:03.895Z,468.00
2023-04-16T08:25:03.938Z,467.00
2023-04-16T08:26:03.894Z,468.00
2023-04-16T08:27:15.422Z,469.00
2023-04-16T08:28:04.891Z,469.00
2023-04-16T08:29:03.907Z,470.00
2023-04-16T08:30:03.856Z,468.00
2023-04-16T08:31:03.904Z,466.00
2023-04-16T08:32:03.886Z,462.00
2023-04-16T08:33:03.894Z,465.00
2023-04-16T08:34:03.881Z,466.00
2023-04-16T08:35:03.834Z,467.00
2023-04-16T08:36:03.836Z,468.00
2023-04-16T08:37:03.827Z,470.00
2023-04-16T08:38:03.804Z,471.00
2023-04-16T08:39:03.816Z,470.00
2023-04-16T08:40:03.822Z,472.00
2023-04-16T08:41:03.824Z,472.00
2023-04-16T08:42:03.822Z,471.00
2023-04-16T08:43:03.774Z,471.00
2023-04-16T08:44:03.793Z,471.00
2023-04-16T08:45:03.803Z,472.00
2023-04-16T08:46:03.757Z,473.00
2023-04-16T08:47:03.860Z,470.00
2023-04-16T08:48:03.813Z,471.00
2023-04-16T08:49:03.795Z,469.00
2023-04-16T08:50:03.792Z,469.00
2023-04-16T08:51:03.766Z,470.00
2023-04-16T08:52:03.785Z,469.00
2023-04-16T08:53:03.806Z,469.00
2023-04-16T08:54:03.815Z,467.00
2023-04-16T08:55:03.814Z,468.00
2023-04-16T08:56:03.826Z,469.00
2023-04-16T08:57:03.858Z,469.00
2023-04-16T08:58:03.866Z,469.00
2023-04-16T08:59:03.902Z,469.00
2023-04-16T09:00:03.875Z,470.00
2023-04-16T09:01:03.962Z,470.00
2023-04-16T09:02:04.071Z,473.00
2023-04-16T09:03:04.100Z,474.00
2023-04-16T09:04:04.038Z,474.00
2023-04-16T09:05:03.916Z,474.00
2023-04-16T09:06:03.920Z,472.00
2023-04-16T09:07:03.937Z,471.00
2023-04-16T09:08:03.963Z,469.00
2023-04-16T09:09:03.969Z,467.00
2023-04-16T09:10:03.970Z,467.00
2023-04-16T09:11:03.982Z,466.00
2023-04-16T09:12:03.992Z,467.00
2023-04-16T09:13:03.999Z,465.00
2023-04-16T09:14:03.988Z,465.00
2023-04-16T09:15:04.023Z,466.00
2023-04-16T09:16:04.086Z,467.00
2023-04-16T09:17:04.013Z,466.00
2023-04-16T09:18:04.043Z,469.00
2023-04-16T09:19:03.996Z,469.00
2023-04-16T09:20:04.018Z,470.00
2023-04-16T09:21:04.060Z,471.00
2023-04-16T09:22:04.033Z,469.00
2023-04-16T09:23:04.023Z,470.00
2023-04-16T09:24:04.036Z,470.00
2023-04-16T09:25:04.062Z,469.00
2023-04-16T09:26:04.043Z,469.00
2023-04-16T09:27:04.071Z,467.00
2023-04-16T09:28:04.061Z,465.00
2023-04-16T09:29:04.076Z,466.00
2023-04-16T09:30:04.079Z,471.00
2023-04-16T09:31:04.070Z,472.00
2023-04-16T09:32:04.130Z,469.00
2023-04-16T09:33:04.095Z,470.00
2023-04-16T09:34:04.070Z,470.00
2023-04-16T09:35:04.049Z,471.00
2023-04-16T09:36:04.062Z,469.00
2023-04-16T09:37:04.093Z,471.00
2023-04-16T09:38:04.048Z,471.00
2023-04-16T09:39:04.102Z,471.00
2023-04-16T09:40:04.077Z,471.00
2023-04-16T09:41:04.057Z,471.00
2023-04-16T09:42:04.073Z,470.00
2023-04-16T09:43:04.039Z,471.00
2023-04-16T09:44:04.063Z,469.00
2023-04-16T09:45:05.677Z,469.00
2023-04-16T09:46:08.299Z,467.00
2023-04-16T09:47:04.105Z,470.00
2023-04-16T09:48:04.200Z,470.00
2023-04-16T09:49:04.117Z,471.00
2023-04-16T09:50:04.057Z,473.00
2023-04-16T09:51:04.031Z,475.00
2023-04-16T09:52:04.542Z,474.00
2023-04-16T09:53:04.020Z,474.00
2023-04-16T09:54:04.013Z,476.00
2023-04-16T09:55:04.007Z,479.00
2023-04-16T09:56:04.040Z,478.00
2023-04-16T09:57:03.987Z,476.00
2023-04-16T09:58:03.966Z,474.00
2023-04-16T09:59:03.978Z,472.00
2023-04-16T10:00:04.007Z,473.00
2023-04-16T10:01:03.999Z,471.00
2023-04-16T10:02:15.649Z,471.00
2023-04-16T10:03:05.075Z,469.00
2023-04-16T10:04:04.018Z,470.00
2023-04-16T10:05:03.940Z,471.00
2023-04-16T10:06:03.952Z,472.00
2023-04-16T10:07:03.926Z,472.00
2023-04-16T10:08:03.946Z,473.00
2023-04-16T10:09:04.007Z,475.00
2023-04-16T10:10:03.919Z,474.00
2023-04-16T10:11:03.883Z,471.00
2023-04-16T10:12:03.891Z,469.00
2023-04-16T10:13:03.873Z,469.00
2023-04-16T10:14:03.895Z,467.00
2023-04-16T10:15:03.872Z,467.00
2023-04-16T10:16:03.886Z,466.00
2023-04-16T10:17:03.868Z,469.00
2023-04-16T10:18:03.863Z,469.00
2023-04-16T10:19:03.836Z,469.00
2023-04-16T10:20:03.825Z,471.00
2023-04-16T10:21:03.870Z,470.00
2023-04-16T10:22:03.847Z,469.00
2023-04-16T10:23:03.811Z,470.00
2023-04-16T10:24:03.849Z,470.00
2023-04-16T10:25:03.823Z,474.00
2023-04-16T10:26:03.845Z,473.00
2023-04-16T10:27:03.827Z,474.00
2023-04-16T10:28:03.848Z,474.00
2023-04-16T10:29:03.824Z,474.00
2023-04-16T10:30:03.846Z,476.00
2023-04-16T10:31:03.862Z,473.00
2023-04-16T10:32:03.828Z,474.00
2023-04-16T10:33:03.904Z,475.00
2023-04-16T10:34:03.842Z,475.00
2023-04-16T10:35:03.847Z,476.00
2023-04-16T10:36:07.447Z,471.00
2023-04-16T10:37:03.883Z,469.00
2023-04-16T10:38:03.833Z,470.00
2023-04-16T10:39:03.834Z,469.00
2023-04-16T10:40:03.900Z,469.00
2023-04-16T10:41:03.835Z,471.00
2023-04-16T10:42:03.797Z,473.00
2023-04-16T10:43:03.803Z,475.00
2023-04-16T10:44:03.803Z,478.00
2023-04-16T10:45:03.801Z,480.00
2023-04-16T10:46:03.809Z,480.00
2023-04-16T10:47:03.793Z,482.00
2023-04-16T10:48:03.769Z,481.00
2023-04-16T10:49:03.788Z,482.00
2023-04-16T10:50:03.754Z,481.00
2023-04-16T10:51:03.745Z,477.00
2023-04-16T10:52:03.748Z,476.00
2023-04-16T10:53:03.743Z,476.00
2023-04-16T10:54:04.017Z,474.00
2023-04-16T10:55:03.713Z,473.00
2023-04-16T10:56:03.716Z,475.00
2023-04-16T10:57:04.396Z,477.00
2023-04-16T10:58:03.691Z,475.00
2023-04-16T10:59:03.719Z,476.00
2023-04-16T11:00:03.693Z,477.00
2023-04-16T11:01:03.694Z,477.00
2023-04-16T11:02:03.764Z,477.00
2023-04-16T11:03:03.819Z,476.00
2023-04-16T11:04:03.899Z,479.00
2023-04-16T11:05:03.817Z,478.00
2023-04-16T11:06:03.743Z,478.00
2023-04-16T11:07:03.659Z,478.00
2023-04-16T11:08:03.633Z,478.00
2023-04-16T11:09:03.646Z,476.00
2023-04-16T11:10:03.633Z,476.00
2023-04-16T11:11:03.622Z,475.00
2023-04-16T11:12:03.638Z,474.00
2023-04-16T11:13:03.614Z,475.00
2023-04-16T11:14:03.610Z,476.00
2023-04-16T11:15:03.595Z,476.00
2023-04-16T11:16:03.622Z,476.00
2023-04-16T11:17:03.591Z,474.00
2023-04-16T11:18:03.679Z,473.00
2023-04-16T11:19:03.557Z,473.00
2023-04-16T11:20:03.646Z,473.00
2023-04-16T11:21:04.542Z,471.00
2023-04-16T11:22:03.545Z,471.00
2023-04-16T11:23:03.528Z,475.00
2023-04-16T11:24:03.535Z,474.00
2023-04-16T11:25:03.518Z,477.00
2023-04-16T11:26:03.511Z,478.00
2023-04-16T11:27:03.500Z,479.00
2023-04-16T11:28:03.518Z,479.00
2023-04-16T11:29:03.495Z,477.00
2023-04-16T11:30:03.512Z,476.00
2023-04-16T11:31:03.499Z,478.00
2023-04-16T11:32:03.527Z,477.00
2023-04-16T11:33:03.560Z,476.00
2023-04-16T11:34:03.542Z,475.00
2023-04-16T11:35:03.545Z,474.00
2023-04-16T11:36:03.579Z,477.00
2023-04-16T11:37:03.535Z,479.00
2023-04-16T11:38:03.551Z,480.00
2023-04-16T11:39:03.646Z,481.00
2023-04-16T11:40:03.589Z,481.00
2023-04-16T11:41:03.568Z,481.00
2023-04-16T11:42:03.651Z,481.00
2023-04-16T11:43:03.557Z,479.00
2023-04-16T11:44:03.615Z,479.00
2023-04-16T11:45:03.554Z,479.00
2023-04-16T11:46:10.337Z,479.00
2023-04-16T11:47:04.616Z,477.00
2023-04-16T11:48:03.617Z,477.00
2023-04-16T11:49:03.542Z,477.00
2023-04-16T11:50:03.542Z,476.00
2023-04-16T11:51:03.528Z,474.00
2023-04-16T11:52:03.499Z,475.00
2023-04-16T11:53:03.541Z,473.00
2023-04-16T11:54:03.550Z,471.00
2023-04-16T11:55:03.494Z,473.00
2023-04-16T11:56:03.504Z,476.00
2023-04-16T11:57:03.485Z,478.00
2023-04-16T11:58:03.502Z,478.00
2023-04-16T11:59:03.496Z,476.00
2023-04-16T12:00:04.985Z,474.00
2023-04-16T12:01:03.460Z,476.00
2023-04-16T12:02:03.537Z,479.00
2023-04-16T12:03:03.571Z,478.00
2023-04-16T12:04:03.614Z,478.00
2023-04-16T12:05:03.487Z,477.00
2023-04-16T12:06:03.412Z,479.00
2023-04-16T12:07:03.421Z,478.00
2023-04-16T12:08:03.450Z,478.00
2023-04-16T12:09:03.517Z,478.00
2023-04-16T12:10:03.425Z,477.00
2023-04-16T12:11:03.426Z,479.00
2023-04-16T12:12:03.459Z,479.00
2023-04-16T12:13:03.426Z,479.00
2023-04-16T12:14:03.466Z,481.00
2023-04-16T12:15:03.576Z,480.00
2023-04-16T12:16:03.447Z,480.00
2023-04-16T12:17:03.523Z,480.00
2023-04-16T12:18:03.478Z,479.00
2023-04-16T12:19:03.483Z,480.00
2023-04-16T12:20:03.462Z,482.00
2023-04-16T12:21:03.470Z,483.00
2023-04-16T12:22:03.469Z,481.00
2023-04-16T12:23:03.475Z,480.00
2023-04-16T12:24:03.477Z,477.00
2023-04-16T12:25:03.483Z,478.00
2023-04-16T12:26:03.478Z,479.00
2023-04-16T12:27:03.486Z,479.00
2023-04-16T12:28:03.467Z,480.00
2023-04-16T12:29:03.472Z,480.00